sensor_id;sensor_type;location;lat;lon;timestamp;temperature;humidity
29281;DHT22;25048;49.590;11.026;2022-12-17T00:01:50;-6.00;99.90
29281;DHT22;25048;49.590;11.026;2022-12-17T00:04:36;-6.10;99.90
29281;DHT22;25048;49.590;11.026;2022-12-17T00:07:22;-6.20;99.90
29281;DHT22;25048;49.590;11.026;2022-12-17T00:10:08;-6.30;99.90
29281;DHT22;25048;49.590;11.026;2022-12-17T00:12:53;-6.50;99.90
29281;DHT22;25048;49.590;11.026;2022-12-17T00:15:39;-6.60;99.90
29281;DHT22;25048;49.590;11.026;2022-12-17T00:18:25;-6.70;99.90
29281;DHT22;25048;49.590;11.026;2022-12-17T00:21:10;-6.80;99.90
29281;DHT22;25048;49.590;11.026;2022-12-17T00:23:56;-6.90;99.90
29281;DHT22;25048;49.590;11.026;2022-12-17T00:26:41;-7.00;99.90
29281;DHT22;25048;49.590;11.026;2022-12-17T00:29:26;-7.10;99.90
29281;DHT22;25048;49.590;11.026;2022-12-17T00:32:12;-7.10;99.90
29281;DHT22;25048;49.590;11.026;2022-12-17T00:34:57;-7.10;99.90
29281;DHT22;25048;49.590;11.026;2022-12-17T00:37:44;-7.10;99.90
29281;DHT22;25048;49.590;11.026;2022-12-17T00:40:30;-7.20;99.90
29281;DHT22;25048;49.590;11.026;2022-12-17T00:43:15;-7.20;99.90
29281;DHT22;25048;49.590;11.026;2022-12-17T00:46:01;-7.30;99.90
29281;DHT22;25048;49.590;11.026;2022-12-17T00:48:46;-7.30;99.90
29281;DHT22;25048;49.590;11.026;2022-12-17T00:51:31;-7.30;99.90
29281;DHT22;25048;49.590;11.026;2022-12-17T00:54:17;-7.50;99.90
29281;DHT22;25048;49.590;11.026;2022-12-17T00:57:02;-7.60;99.90
29281;DHT22;25048;49.590;11.026;2022-12-17T00:59:47;-7.70;99.90
29281;DHT22;25048;49.590;11.026;2022-12-17T01:02:33;-7.90;99.90
29281;DHT22;25048;49.590;11.026;2022-12-17T01:05:18;-8.00;99.90
29281;DHT22;25048;49.590;11.026;2022-12-17T01:08:11;-8.10;99.90
29281;DHT22;25048;49.590;11.026;2022-12-17T01:11:03;-8.10;99.90
29281;DHT22;25048;49.590;11.026;2022-12-17T01:13:49;-8.10;99.90
29281;DHT22;25048;49.590;11.026;2022-12-17T01:16:34;-8.20;99.90
29281;DHT22;25048;49.590;11.026;2022-12-17T01:19:20;-8.30;99.90
29281;DHT22;25048;49.590;11.026;2022-12-17T01:22:05;-8.40;99.90
29281;DHT22;25048;49.590;11.026;2022-12-17T01:24:51;-8.50;99.90
29281;DHT22;25048;49.590;11.026;2022-12-17T01:27:36;-8.50;99.90
29281;DHT22;25048;49.590;11.026;2022-12-17T01:30:21;-8.60;99.90
29281;DHT22;25048;49.590;11.026;2022-12-17T01:33:08;-8.60;99.90
29281;DHT22;25048;49.590;11.026;2022-12-17T01:35:58;-8.60;99.90
29281;DHT22;25048;49.590;11.026;2022-12-17T01:38:43;-8.60;99.90
29281;DHT22;25048;49.590;11.026;2022-12-17T01:41:28;-8.50;99.90
29281;DHT22;25048;49.590;11.026;2022-12-17T01:44:53;-8.40;99.90
29281;DHT22;25048;49.590;11.026;2022-12-17T01:47:18;-8.30;99.90
29281;DHT22;25048;49.590;11.026;2022-12-17T01:50:04;-8.30;99.90
29281;DHT22;25048;49.590;11.026;2022-12-17T01:52:52;-8.30;99.90
29281;DHT22;25048;49.590;11.026;2022-12-17T01:55:38;-8.20;99.90
29281;DHT22;25048;49.590;11.026;2022-12-17T01:58:24;-8.20;99.90
29281;DHT22;25048;49.590;11.026;2022-12-17T02:01:10;-8.10;99.90
29281;DHT22;25048;49.590;11.026;2022-12-17T02:03:55;-8.10;99.90
29281;DHT22;25048;49.590;11.026;2022-12-17T02:06:44;-8.20;99.90
29281;DHT22;25048;49.590;11.026;2022-12-17T02:09:39;-8.20;99.90
29281;DHT22;25048;49.590;11.026;2022-12-17T02:12:38;-8.20;99.90
29281;DHT22;25048;49.590;11.026;2022-12-17T02:15:46;-8.20;99.90
29281;DHT22;25048;49.590;11.026;2022-12-17T02:18:13;-8.10;99.90
29281;DHT22;25048;49.590;11.026;2022-12-17T02:20:58;-8.20;99.90
29281;DHT22;25048;49.590;11.026;2022-12-17T02:26:53;-8.40;99.90
29281;DHT22;25048;49.590;11.026;2022-12-17T02:29:48;-8.60;99.90
29281;DHT22;25048;49.590;11.026;2022-12-17T02:32:32;-8.70;99.90
29281;DHT22;25048;49.590;11.026;2022-12-17T02:35:33;-8.80;99.90
29281;DHT22;25048;49.590;11.026;2022-12-17T02:38:28;-8.90;99.90
29281;DHT22;25048;49.590;11.026;2022-12-17T02:41:21;-9.00;99.90
29281;DHT22;25048;49.590;11.026;2022-12-17T02:44:09;-9.10;99.90
29281;DHT22;25048;49.590;11.026;2022-12-17T02:46:56;-9.20;99.90
29281;DHT22;25048;49.590;11.026;2022-12-17T02:49:43;-9.30;99.90
29281;DHT22;25048;49.590;11.026;2022-12-17T02:52:29;-9.40;99.90
29281;DHT22;25048;49.590;11.026;2022-12-17T02:55:15;-9.40;99.90
29281;DHT22;25048;49.590;11.026;2022-12-17T02:58:01;-9.50;99.90
29281;DHT22;25048;49.590;11.026;2022-12-17T03:00:46;-9.60;99.90
29281;DHT22;25048;49.590;11.026;2022-12-17T03:03:32;-9.70;99.90
29281;DHT22;25048;49.590;11.026;2022-12-17T03:06:17;-9.80;99.90
29281;DHT22;25048;49.590;11.026;2022-12-17T03:09:03;-9.90;99.90
29281;DHT22;25048;49.590;11.026;2022-12-17T03:11:49;-9.90;99.90
29281;DHT22;25048;49.590;11.026;2022-12-17T03:14:34;-10.00;99.90
29281;DHT22;25048;49.590;11.026;2022-12-17T03:17:20;-10.00;99.90
29281;DHT22;25048;49.590;11.026;2022-12-17T03:20:05;-10.10;99.90
29281;DHT22;25048;49.590;11.026;2022-12-17T03:22:51;-10.10;99.90
29281;DHT22;25048;49.590;11.026;2022-12-17T03:25:36;-10.10;99.90
29281;DHT22;25048;49.590;11.026;2022-12-17T03:28:22;-10.10;99.90
29281;DHT22;25048;49.590;11.026;2022-12-17T03:31:07;-10.10;99.90
29281;DHT22;25048;49.590;11.026;2022-12-17T03:33:53;-10.20;99.90
29281;DHT22;25048;49.590;11.026;2022-12-17T03:36:38;-10.30;99.90
29281;DHT22;25048;49.590;11.026;2022-12-17T03:39:23;-10.40;99.90
29281;DHT22;25048;49.590;11.026;2022-12-17T03:42:08;-10.50;99.90
29281;DHT22;25048;49.590;11.026;2022-12-17T03:44:54;-10.60;99.90
29281;DHT22;25048;49.590;11.026;2022-12-17T03:47:39;-10.70;99.90
29281;DHT22;25048;49.590;11.026;2022-12-17T03:50:25;-10.80;99.90
29281;DHT22;25048;49.590;11.026;2022-12-17T03:53:10;-10.80;99.90
29281;DHT22;25048;49.590;11.026;2022-12-17T03:55:56;-10.80;99.90
29281;DHT22;25048;49.590;11.026;2022-12-17T03:58:41;-10.90;99.90
29281;DHT22;25048;49.590;11.026;2022-12-17T04:01:26;-10.90;99.90
29281;DHT22;25048;49.590;11.026;2022-12-17T04:04:12;-11.00;99.90
29281;DHT22;25048;49.590;11.026;2022-12-17T04:06:57;-11.00;99.90
29281;DHT22;25048;49.590;11.026;2022-12-17T04:09:42;-11.10;99.90
29281;DHT22;25048;49.590;11.026;2022-12-17T04:12:28;-11.20;99.90
29281;DHT22;25048;49.590;11.026;2022-12-17T04:15:13;-11.20;99.90
29281;DHT22;25048;49.590;11.026;2022-12-17T04:17:59;-11.30;99.90
29281;DHT22;25048;49.590;11.026;2022-12-17T04:20:44;-11.30;99.90
29281;DHT22;25048;49.590;11.026;2022-12-17T04:23:30;-11.40;99.90
29281;DHT22;25048;49.590;11.026;2022-12-17T04:26:15;-11.40;99.90
29281;DHT22;25048;49.590;11.026;2022-12-17T04:29:00;-11.50;99.90
29281;DHT22;25048;49.590;11.026;2022-12-17T04:31:46;-11.50;99.90
29281;DHT22;25048;49.590;11.026;2022-12-17T04:34:32;-11.60;99.90
29281;DHT22;25048;49.590;11.026;2022-12-17T04:37:17;-11.60;99.90
29281;DHT22;25048;49.590;11.026;2022-12-17T04:40:03;-11.70;99.90
29281;DHT22;25048;49.590;11.026;2022-12-17T04:42:48;-11.70;99.90
29281;DHT22;25048;49.590;11.026;2022-12-17T04:45:34;-11.80;99.90
29281;DHT22;25048;49.590;11.026;2022-12-17T04:48:19;-11.80;99.90
29281;DHT22;25048;49.590;11.026;2022-12-17T04:51:05;-11.90;99.90
29281;DHT22;25048;49.590;11.026;2022-12-17T04:53:50;-11.90;99.90
29281;DHT22;25048;49.590;11.026;2022-12-17T04:56:36;-11.90;99.90
29281;DHT22;25048;49.590;11.026;2022-12-17T04:59:21;-11.90;99.90
29281;DHT22;25048;49.590;11.026;2022-12-17T05:02:07;-11.90;99.90
29281;DHT22;25048;49.590;11.026;2022-12-17T05:04:52;-12.00;99.90
29281;DHT22;25048;49.590;11.026;2022-12-17T05:07:37;-12.10;99.90
29281;DHT22;25048;49.590;11.026;2022-12-17T05:10:22;-12.10;99.90
29281;DHT22;25048;49.590;11.026;2022-12-17T05:13:09;-12.20;99.90
29281;DHT22;25048;49.590;11.026;2022-12-17T05:15:55;-12.20;99.90
29281;DHT22;25048;49.590;11.026;2022-12-17T05:18:40;-12.30;99.90
29281;DHT22;25048;49.590;11.026;2022-12-17T05:21:26;-12.30;99.90
29281;DHT22;25048;49.590;11.026;2022-12-17T05:24:11;-12.30;99.90
29281;DHT22;25048;49.590;11.026;2022-12-17T05:26:57;-12.40;99.90
29281;DHT22;25048;49.590;11.026;2022-12-17T05:29:42;-12.40;99.90
29281;DHT22;25048;49.590;11.026;2022-12-17T05:32:28;-12.40;99.90
29281;DHT22;25048;49.590;11.026;2022-12-17T05:35:13;-12.50;99.90
29281;DHT22;25048;49.590;11.026;2022-12-17T05:38:06;-12.60;99.90
29281;DHT22;25048;49.590;11.026;2022-12-17T05:40:54;-12.60;99.90
29281;DHT22;25048;49.590;11.026;2022-12-17T05:43:38;-12.60;99.90
29281;DHT22;25048;49.590;11.026;2022-12-17T05:46:24;-12.70;99.90
29281;DHT22;25048;49.590;11.026;2022-12-17T05:49:10;-12.70;99.90
29281;DHT22;25048;49.590;11.026;2022-12-17T05:51:55;-12.70;99.90
29281;DHT22;25048;49.590;11.026;2022-12-17T05:54:40;-12.70;99.90
29281;DHT22;25048;49.590;11.026;2022-12-17T05:57:26;-12.80;99.90
29281;DHT22;25048;49.590;11.026;2022-12-17T06:00:12;-12.80;99.90
29281;DHT22;25048;49.590;11.026;2022-12-17T06:03:03;-12.80;99.90
29281;DHT22;25048;49.590;11.026;2022-12-17T06:05:46;-12.90;99.90
29281;DHT22;25048;49.590;11.026;2022-12-17T06:08:32;-12.90;99.90
29281;DHT22;25048;49.590;11.026;2022-12-17T06:11:17;-12.90;99.90
29281;DHT22;25048;49.590;11.026;2022-12-17T06:14:02;-13.00;99.90
29281;DHT22;25048;49.590;11.026;2022-12-17T06:16:48;-13.10;99.90
29281;DHT22;25048;49.590;11.026;2022-12-17T06:19:33;-13.10;99.90
29281;DHT22;25048;49.590;11.026;2022-12-17T06:22:18;-13.10;99.90
29281;DHT22;25048;49.590;11.026;2022-12-17T06:25:04;-13.20;99.90
29281;DHT22;25048;49.590;11.026;2022-12-17T06:27:58;-13.20;99.90
29281;DHT22;25048;49.590;11.026;2022-12-17T06:30:51;-13.20;99.90
29281;DHT22;25048;49.590;11.026;2022-12-17T06:33:38;-13.30;99.90
29281;DHT22;25048;49.590;11.026;2022-12-17T06:36:24;-13.30;99.90
29281;DHT22;25048;49.590;11.026;2022-12-17T06:39:09;-13.30;99.90
29281;DHT22;25048;49.590;11.026;2022-12-17T06:41:53;-13.30;99.90
29281;DHT22;25048;49.590;11.026;2022-12-17T06:44:39;-13.40;99.90
29281;DHT22;25048;49.590;11.026;2022-12-17T06:47:24;-13.40;99.90
29281;DHT22;25048;49.590;11.026;2022-12-17T06:50:09;-13.40;99.90
29281;DHT22;25048;49.590;11.026;2022-12-17T06:53:03;-13.40;99.90
29281;DHT22;25048;49.590;11.026;2022-12-17T06:55:49;-13.50;99.90
29281;DHT22;25048;49.590;11.026;2022-12-17T06:58:35;-13.50;99.90
29281;DHT22;25048;49.590;11.026;2022-12-17T07:01:21;-13.50;99.90
29281;DHT22;25048;49.590;11.026;2022-12-17T07:04:06;-13.60;99.90
29281;DHT22;25048;49.590;11.026;2022-12-17T07:06:52;-13.60;99.90
29281;DHT22;25048;49.590;11.026;2022-12-17T07:09:37;-13.70;99.90
29281;DHT22;25048;49.590;11.026;2022-12-17T07:12:22;-13.60;99.90
29281;DHT22;25048;49.590;11.026;2022-12-17T07:15:08;-13.60;99.90
29281;DHT22;25048;49.590;11.026;2022-12-17T07:17:59;-13.60;99.90
29281;DHT22;25048;49.590;11.026;2022-12-17T07:20:45;-13.60;99.90
29281;DHT22;25048;49.590;11.026;2022-12-17T07:23:31;-13.50;99.90
29281;DHT22;25048;49.590;11.026;2022-12-17T07:26:16;-13.50;99.90
29281;DHT22;25048;49.590;11.026;2022-12-17T07:29:01;-13.50;99.90
29281;DHT22;25048;49.590;11.026;2022-12-17T07:31:47;-13.50;99.90
29281;DHT22;25048;49.590;11.026;2022-12-17T07:34:32;-13.50;99.90
29281;DHT22;25048;49.590;11.026;2022-12-17T07:37:18;-13.50;99.90
29281;DHT22;25048;49.590;11.026;2022-12-17T07:40:04;-13.40;99.90
29281;DHT22;25048;49.590;11.026;2022-12-17T07:42:49;-13.30;99.90
29281;DHT22;25048;49.590;11.026;2022-12-17T07:45:34;-13.20;99.90
29281;DHT22;25048;49.590;11.026;2022-12-17T07:48:20;-13.20;99.90
29281;DHT22;25048;49.590;11.026;2022-12-17T07:51:05;-13.10;99.90
29281;DHT22;25048;49.590;11.026;2022-12-17T07:53:51;-12.90;99.90
29281;DHT22;25048;49.590;11.026;2022-12-17T07:56:36;-12.80;99.90
29281;DHT22;25048;49.590;11.026;2022-12-17T07:59:21;-12.70;99.90
29281;DHT22;25048;49.590;11.026;2022-12-17T08:02:09;-12.60;99.90
29281;DHT22;25048;49.590;11.026;2022-12-17T08:04:54;-12.40;99.90
29281;DHT22;25048;49.590;11.026;2022-12-17T08:07:39;-12.30;99.90
29281;DHT22;25048;49.590;11.026;2022-12-17T08:10:25;-12.10;99.90
29281;DHT22;25048;49.590;11.026;2022-12-17T08:13:10;-12.00;99.90
29281;DHT22;25048;49.590;11.026;2022-12-17T08:15:56;-11.90;99.90
29281;DHT22;25048;49.590;11.026;2022-12-17T08:18:41;-11.80;99.90
29281;DHT22;25048;49.590;11.026;2022-12-17T08:21:26;-11.70;99.90
29281;DHT22;25048;49.590;11.026;2022-12-17T08:24:01;-11.50;99.90
29281;DHT22;25048;49.590;11.026;2022-12-17T08:26:47;-11.30;99.90
29281;DHT22;25048;49.590;11.026;2022-12-17T08:29:32;-11.10;99.90
29281;DHT22;25048;49.590;11.026;2022-12-17T08:32:18;-11.00;99.90
29281;DHT22;25048;49.590;11.026;2022-12-17T08:35:03;-10.90;99.90
29281;DHT22;25048;49.590;11.026;2022-12-17T08:37:49;-10.80;99.90
29281;DHT22;25048;49.590;11.026;2022-12-17T08:40:35;-10.70;99.90
29281;DHT22;25048;49.590;11.026;2022-12-17T08:43:20;-10.60;99.90
29281;DHT22;25048;49.590;11.026;2022-12-17T08:46:05;-10.50;99.90
29281;DHT22;25048;49.590;11.026;2022-12-17T08:48:51;-10.40;99.90
29281;DHT22;25048;49.590;11.026;2022-12-17T08:51:21;-10.30;99.90
29281;DHT22;25048;49.590;11.026;2022-12-17T08:54:07;-10.20;99.90
29281;DHT22;25048;49.590;11.026;2022-12-17T08:56:52;-10.10;99.90
29281;DHT22;25048;49.590;11.026;2022-12-17T08:59:37;-9.90;99.90
29281;DHT22;25048;49.590;11.026;2022-12-17T09:02:23;-9.70;99.90
29281;DHT22;25048;49.590;11.026;2022-12-17T09:05:09;-9.50;99.90
29281;DHT22;25048;49.590;11.026;2022-12-17T09:08:00;-9.40;99.90
29281;DHT22;25048;49.590;11.026;2022-12-17T09:10:46;-9.20;99.90
29281;DHT22;25048;49.590;11.026;2022-12-17T09:13:31;-9.10;99.90
29281;DHT22;25048;49.590;11.026;2022-12-17T09:16:17;-8.90;99.90
29281;DHT22;25048;49.590;11.026;2022-12-17T09:19:02;-8.70;99.90
29281;DHT22;25048;49.590;11.026;2022-12-17T09:21:47;-8.50;99.90
29281;DHT22;25048;49.590;11.026;2022-12-17T09:24:33;-8.40;99.90
29281;DHT22;25048;49.590;11.026;2022-12-17T09:27:18;-8.20;99.90
29281;DHT22;25048;49.590;11.026;2022-12-17T09:30:04;-8.00;99.90
29281;DHT22;25048;49.590;11.026;2022-12-17T09:32:50;-7.90;99.90
29281;DHT22;25048;49.590;11.026;2022-12-17T09:35:37;-7.60;99.90
29281;DHT22;25048;49.590;11.026;2022-12-17T09:38:14;-7.40;99.90
29281;DHT22;25048;49.590;11.026;2022-12-17T09:41:25;-7.20;99.90
29281;DHT22;25048;49.590;11.026;2022-12-17T09:44:26;-7.00;99.90
29281;DHT22;25048;49.590;11.026;2022-12-17T09:50:14;-6.50;99.90
29281;DHT22;25048;49.590;11.026;2022-12-17T09:52:52;-6.30;99.90
29281;DHT22;25048;49.590;11.026;2022-12-17T09:55:45;-6.10;99.90
29281;DHT22;25048;49.590;11.026;2022-12-17T09:58:29;-5.80;99.90
29281;DHT22;25048;49.590;11.026;2022-12-17T10:01:18;-5.60;99.90
29281;DHT22;25048;49.590;11.026;2022-12-17T10:04:15;-5.30;99.90
29281;DHT22;25048;49.590;11.026;2022-12-17T10:06:52;-5.00;99.90
29281;DHT22;25048;49.590;11.026;2022-12-17T10:09:38;-4.80;99.90
29281;DHT22;25048;49.590;11.026;2022-12-17T10:12:23;-4.70;99.90
29281;DHT22;25048;49.590;11.026;2022-12-17T10:15:12;-4.50;99.90
29281;DHT22;25048;49.590;11.026;2022-12-17T10:18:00;-4.30;99.90
29281;DHT22;25048;49.590;11.026;2022-12-17T10:20:54;-4.10;99.90
29281;DHT22;25048;49.590;11.026;2022-12-17T10:23:36;-3.80;99.90
29281;DHT22;25048;49.590;11.026;2022-12-17T10:26:27;-3.60;99.90
29281;DHT22;25048;49.590;11.026;2022-12-17T10:29:22;-3.60;99.90
29281;DHT22;25048;49.590;11.026;2022-12-17T10:35:07;-3.10;99.90
29281;DHT22;25048;49.590;11.026;2022-12-17T10:37:52;-3.00;99.90
29281;DHT22;25048;49.590;11.026;2022-12-17T10:40:37;-2.80;99.90
29281;DHT22;25048;49.590;11.026;2022-12-17T10:43:28;-2.70;99.90
29281;DHT22;25048;49.590;11.026;2022-12-17T10:46:28;-2.50;99.90
29281;DHT22;25048;49.590;11.026;2022-12-17T10:49:20;-2.40;99.90
29281;DHT22;25048;49.590;11.026;2022-12-17T10:52:23;-2.30;99.90
29281;DHT22;25048;49.590;11.026;2022-12-17T10:54:59;-2.10;99.90
29281;DHT22;25048;49.590;11.026;2022-12-17T10:57:45;-2.00;99.90
29281;DHT22;25048;49.590;11.026;2022-12-17T11:00:33;-1.90;99.90
29281;DHT22;25048;49.590;11.026;2022-12-17T11:06:26;-1.80;99.90
29281;DHT22;25048;49.590;11.026;2022-12-17T11:12:31;-1.80;99.90
29281;DHT22;25048;49.590;11.026;2022-12-17T11:15:18;-1.80;99.90
29281;DHT22;25048;49.590;11.026;2022-12-17T11:18:09;-1.70;99.90
29281;DHT22;25048;49.590;11.026;2022-12-17T11:20:57;-1.60;99.90
29281;DHT22;25048;49.590;11.026;2022-12-17T11:23:43;-1.50;99.90
29281;DHT22;25048;49.590;11.026;2022-12-17T11:26:33;-1.50;99.90
29281;DHT22;25048;49.590;11.026;2022-12-17T11:29:19;-1.60;99.90
29281;DHT22;25048;49.590;11.026;2022-12-17T11:32:16;-1.60;99.90
29281;DHT22;25048;49.590;11.026;2022-12-17T11:35:05;-1.50;99.90
29281;DHT22;25048;49.590;11.026;2022-12-17T11:41:03;-1.50;99.90
29281;DHT22;25048;49.590;11.026;2022-12-17T11:43:53;-1.50;99.90
29281;DHT22;25048;49.590;11.026;2022-12-17T11:46:58;-1.50;99.90
29281;DHT22;25048;49.590;11.026;2022-12-17T11:49:51;-1.60;99.90
29281;DHT22;25048;49.590;11.026;2022-12-17T11:58:51;-1.60;99.90
29281;DHT22;25048;49.590;11.026;2022-12-17T12:01:50;-1.60;99.90
29281;DHT22;25048;49.590;11.026;2022-12-17T12:07:37;-1.60;99.90
29281;DHT22;25048;49.590;11.026;2022-12-17T12:10:24;-1.50;99.90
29281;DHT22;25048;49.590;11.026;2022-12-17T12:16:24;-1.50;99.90
29281;DHT22;25048;49.590;11.026;2022-12-17T12:19:28;-1.50;99.90
29281;DHT22;25048;49.590;11.026;2022-12-17T12:22:29;-1.60;99.90
29281;DHT22;25048;49.590;11.026;2022-12-17T12:28:32;-1.70;99.90
29281;DHT22;25048;49.590;11.026;2022-12-17T12:31:27;-1.70;99.90
29281;DHT22;25048;49.590;11.026;2022-12-17T12:34:16;-1.70;99.90
29281;DHT22;25048;49.590;11.026;2022-12-17T12:37:03;-1.60;99.90
29281;DHT22;25048;49.590;11.026;2022-12-17T12:45:50;-1.50;99.90
29281;DHT22;25048;49.590;11.026;2022-12-17T12:48:42;-1.50;99.90
29281;DHT22;25048;49.590;11.026;2022-12-17T12:51:26;-1.40;99.90
29281;DHT22;25048;49.590;11.026;2022-12-17T12:54:27;-1.40;99.90
29281;DHT22;25048;49.590;11.026;2022-12-17T13:00:26;-1.20;99.90
29281;DHT22;25048;49.590;11.026;2022-12-17T13:03:22;-1.10;99.90
29281;DHT22;25048;49.590;11.026;2022-12-17T13:06:05;-1.10;99.90
29281;DHT22;25048;49.590;11.026;2022-12-17T13:08:33;-1.10;99.90
29281;DHT22;25048;49.590;11.026;2022-12-17T13:11:34;-1.10;99.90
29281;DHT22;25048;49.590;11.026;2022-12-17T13:13:59;-1.00;99.90
29281;DHT22;25048;49.590;11.026;2022-12-17T13:21:43;-0.80;99.90
29281;DHT22;25048;49.590;11.026;2022-12-17T13:24:12;-0.70;99.90
29281;DHT22;25048;49.590;11.026;2022-12-17T13:26:42;-0.60;99.90
29281;DHT22;25048;49.590;11.026;2022-12-17T13:29:22;-0.60;99.90
29281;DHT22;25048;49.590;11.026;2022-12-17T13:32:02;-0.60;99.90
29281;DHT22;25048;49.590;11.026;2022-12-17T13:34:37;-0.60;99.90
29281;DHT22;25048;49.590;11.026;2022-12-17T13:37:18;-0.40;99.90
29281;DHT22;25048;49.590;11.026;2022-12-17T13:39:48;0.30;99.90
29281;DHT22;25048;49.590;11.026;2022-12-17T13:42:36;0.80;99.90
29281;DHT22;25048;49.590;11.026;2022-12-17T13:44:52;1.20;99.90
29281;DHT22;25048;49.590;11.026;2022-12-17T13:47:25;1.40;99.90
29281;DHT22;25048;49.590;11.026;2022-12-17T13:49:56;1.60;99.90
29281;DHT22;25048;49.590;11.026;2022-12-17T13:52:26;1.60;99.90
29281;DHT22;25048;49.590;11.026;2022-12-17T13:55:05;1.60;99.90
29281;DHT22;25048;49.590;11.026;2022-12-17T13:57:35;1.50;99.90
29281;DHT22;25048;49.590;11.026;2022-12-17T14:00:04;1.50;99.90
29281;DHT22;25048;49.590;11.026;2022-12-17T14:02:34;1.70;99.90
29281;DHT22;25048;49.590;11.026;2022-12-17T14:05:06;2.00;99.90
29281;DHT22;25048;49.590;11.026;2022-12-17T14:07:37;2.20;99.90
29281;DHT22;25048;49.590;11.026;2022-12-17T14:10:11;2.50;99.90
29281;DHT22;25048;49.590;11.026;2022-12-17T14:12:34;2.60;99.90
29281;DHT22;25048;49.590;11.026;2022-12-17T14:15:04;2.60;99.90
29281;DHT22;25048;49.590;11.026;2022-12-17T14:17:40;2.70;99.90
29281;DHT22;25048;49.590;11.026;2022-12-17T14:20:24;2.80;99.90
29281;DHT22;25048;49.590;11.026;2022-12-17T14:22:54;3.10;99.90
29281;DHT22;25048;49.590;11.026;2022-12-17T14:25:28;3.30;99.90
29281;DHT22;25048;49.590;11.026;2022-12-17T14:28:01;3.40;99.90
29281;DHT22;25048;49.590;11.026;2022-12-17T14:30:37;3.30;99.90
29281;DHT22;25048;49.590;11.026;2022-12-17T14:35:57;3.00;99.90
29281;DHT22;25048;49.590;11.026;2022-12-17T14:38:26;2.80;99.90
29281;DHT22;25048;49.590;11.026;2022-12-17T14:41:00;2.00;99.90
29281;DHT22;25048;49.590;11.026;2022-12-17T14:43:27;1.20;99.90
29281;DHT22;25048;49.590;11.026;2022-12-17T14:45:58;0.30;99.90
29281;DHT22;25048;49.590;11.026;2022-12-17T14:48:43;-0.50;99.90
29281;DHT22;25048;49.590;11.026;2022-12-17T14:51:38;-1.30;99.90
29281;DHT22;25048;49.590;11.026;2022-12-17T14:54:27;-2.00;99.90
29281;DHT22;25048;49.590;11.026;2022-12-17T14:56:56;-2.60;99.90
29281;DHT22;25048;49.590;11.026;2022-12-17T14:59:36;-3.10;99.90
29281;DHT22;25048;49.590;11.026;2022-12-17T15:04:37;-3.80;99.90
29281;DHT22;25048;49.590;11.026;2022-12-17T15:07:06;-4.10;99.90
29281;DHT22;25048;49.590;11.026;2022-12-17T15:09:36;-4.30;99.90
29281;DHT22;25048;49.590;11.026;2022-12-17T15:12:04;-4.60;99.90
29281;DHT22;25048;49.590;11.026;2022-12-17T15:14:32;-4.90;99.90
29281;DHT22;25048;49.590;11.026;2022-12-17T15:16:59;-5.10;99.90
29281;DHT22;25048;49.590;11.026;2022-12-17T15:19:27;-5.30;99.90
29281;DHT22;25048;49.590;11.026;2022-12-17T15:21:54;-5.50;99.90
29281;DHT22;25048;49.590;11.026;2022-12-17T15:24:22;-5.60;99.90
29281;DHT22;25048;49.590;11.026;2022-12-17T15:26:50;-5.80;99.90
29281;DHT22;25048;49.590;11.026;2022-12-17T15:29:17;-5.90;99.90
29281;DHT22;25048;49.590;11.026;2022-12-17T15:31:45;-6.10;99.90
29281;DHT22;25048;49.590;11.026;2022-12-17T15:34:12;-6.20;99.90
29281;DHT22;25048;49.590;11.026;2022-12-17T15:36:40;-6.40;99.90
29281;DHT22;25048;49.590;11.026;2022-12-17T15:39:07;-6.50;99.90
29281;DHT22;25048;49.590;11.026;2022-12-17T15:41:35;-6.60;99.90
29281;DHT22;25048;49.590;11.026;2022-12-17T15:44:21;-6.70;99.90
29281;DHT22;25048;49.590;11.026;2022-12-17T15:46:48;-6.80;99.90
29281;DHT22;25048;49.590;11.026;2022-12-17T15:49:16;-6.90;99.90
29281;DHT22;25048;49.590;11.026;2022-12-17T15:51:44;-7.10;99.90
29281;DHT22;25048;49.590;11.026;2022-12-17T15:54:13;-7.20;99.90
29281;DHT22;25048;49.590;11.026;2022-12-17T15:56:40;-7.30;99.90
29281;DHT22;25048;49.590;11.026;2022-12-17T15:59:08;-7.30;99.90
29281;DHT22;25048;49.590;11.026;2022-12-17T16:01:36;-7.40;99.90
29281;DHT22;25048;49.590;11.026;2022-12-17T16:04:03;-7.50;99.90
29281;DHT22;25048;49.590;11.026;2022-12-17T16:06:31;-7.60;99.90
29281;DHT22;25048;49.590;11.026;2022-12-17T16:08:59;-7.80;99.90
29281;DHT22;25048;49.590;11.026;2022-12-17T16:11:26;-7.90;99.90
29281;DHT22;25048;49.590;11.026;2022-12-17T16:13:54;-8.00;99.90
29281;DHT22;25048;49.590;11.026;2022-12-17T16:16:22;-8.10;99.90
29281;DHT22;25048;49.590;11.026;2022-12-17T16:18:51;-8.10;99.90
29281;DHT22;25048;49.590;11.026;2022-12-17T16:21:21;-8.20;99.90
29281;DHT22;25048;49.590;11.026;2022-12-17T16:23:47;-8.30;99.90
29281;DHT22;25048;49.590;11.026;2022-12-17T16:26:15;-8.40;99.90
29281;DHT22;25048;49.590;11.026;2022-12-17T16:28:43;-8.50;99.90
29281;DHT22;25048;49.590;11.026;2022-12-17T16:31:12;-8.50;99.90
29281;DHT22;25048;49.590;11.026;2022-12-17T16:33:42;-8.50;99.90
29281;DHT22;25048;49.590;11.026;2022-12-17T16:36:12;-8.60;99.90
29281;DHT22;25048;49.590;11.026;2022-12-17T16:38:44;-8.70;99.90
29281;DHT22;25048;49.590;11.026;2022-12-17T16:41:12;-8.70;99.90
29281;DHT22;25048;49.590;11.026;2022-12-17T16:43:40;-8.80;99.90
29281;DHT22;25048;49.590;11.026;2022-12-17T16:46:31;-8.90;99.90
29281;DHT22;25048;49.590;11.026;2022-12-17T16:49:13;-8.90;99.90
29281;DHT22;25048;49.590;11.026;2022-12-17T16:51:45;-9.00;99.90
29281;DHT22;25048;49.590;11.026;2022-12-17T16:54:22;-9.10;99.90
29281;DHT22;25048;49.590;11.026;2022-12-17T16:56:53;-9.20;99.90
29281;DHT22;25048;49.590;11.026;2022-12-17T16:59:23;-9.30;99.90
29281;DHT22;25048;49.590;11.026;2022-12-17T17:01:51;-9.30;99.90
29281;DHT22;25048;49.590;11.026;2022-12-17T17:04:22;-9.40;99.90
29281;DHT22;25048;49.590;11.026;2022-12-17T17:07:00;-9.40;99.90
29281;DHT22;25048;49.590;11.026;2022-12-17T17:09:32;-9.40;99.90
29281;DHT22;25048;49.590;11.026;2022-12-17T17:12:04;-9.50;99.90
29281;DHT22;25048;49.590;11.026;2022-12-17T17:14:43;-9.60;99.90
29281;DHT22;25048;49.590;11.026;2022-12-17T17:17:30;-9.60;99.90
29281;DHT22;25048;49.590;11.026;2022-12-17T17:20:03;-9.70;99.90
29281;DHT22;25048;49.590;11.026;2022-12-17T17:22:38;-9.80;99.90
29281;DHT22;25048;49.590;11.026;2022-12-17T17:25:05;-9.90;99.90
29281;DHT22;25048;49.590;11.026;2022-12-17T17:27:33;-9.90;99.90
29281;DHT22;25048;49.590;11.026;2022-12-17T17:30:01;-10.00;99.90
29281;DHT22;25048;49.590;11.026;2022-12-17T17:32:28;-10.00;99.90
29281;DHT22;25048;49.590;11.026;2022-12-17T17:34:56;-10.10;99.90
29281;DHT22;25048;49.590;11.026;2022-12-17T17:37:23;-10.20;99.90
29281;DHT22;25048;49.590;11.026;2022-12-17T17:39:51;-10.20;99.90
29281;DHT22;25048;49.590;11.026;2022-12-17T17:42:19;-10.30;99.90